»·PEaware :: ASA592 KPDX-KSNA

ASA592 :: KPDX-KSNA

FLIGHT INFORMATION

Flight Status: Arrived
Operator:
Alaska Airlines
More flights by this operator :: More flights under this callsign
Pilot: Patricio R. (14780)
Aircraft: BOEING 737-800
(B738)
More flights by this aircraft type
Origin: KPDX Portland Intl
United States
Destination: KSNA John Wayne-Orange Co
United States
More flights between these airports :: More routes between these airports
Route: +CASCD2 SMIGE Q9 SUNBE FRA REBRG OHSEA1
File this flight plan on PilotEdge
Remarks: PBN / A1B1C1D1S1S2 DOF / 180926 REG / N806SB EET / KZOA0042 KZLA0125 OPR / ASA PER / C RMK / TCAS SIMBRIEF
Altitude:
(Current/Filed)
37,000ft
Speed:
(Current/Filed)
457kts
Departed: 26-Sep-18 04:05 PM
Arrived: 26-Sep-18 06:10 PM
Distance/Time
Traveled:
747nm/2:05
Distance/Time
To Go:
Arrived

Flight Plot

Page will automatically refresh every two minutes.

Flight plan parsing failed; only flown route is shown


Map Options




Map Legend


Flown Route
Filed Route
Departure Airport
Arrival Airport
Navaid (VOR, NDB)
Fix

Horizontal Profiles

Position Reports

Time Latitude Longitude Heading Altitude Ground
Speed
26-Sep-18 15:37 45.587959 -122.595408 23 37ft 0kts
26-Sep-18 15:38 45.587959 -122.595408 23 37ft 0kts
26-Sep-18 15:39 45.587959 -122.595408 23 37ft 0kts
26-Sep-18 15:44 45.587959 -122.595408 22 37ft 0kts
26-Sep-18 15:45 45.587959 -122.595408 22 37ft 0kts
26-Sep-18 15:46 45.587959 -122.595408 22 37ft 0kts
26-Sep-18 15:47 45.587959 -122.595408 22 37ft 0kts
26-Sep-18 15:48 45.587959 -122.595408 22 37ft 0kts
26-Sep-18 15:49 45.587959 -122.595408 22 37ft 0kts
26-Sep-18 15:50 45.587959 -122.595408 22 37ft 0kts
26-Sep-18 15:51 45.587959 -122.595408 22 37ft 0kts
26-Sep-18 15:52 45.587959 -122.595408 22 37ft 0kts
26-Sep-18 15:53 45.587959 -122.595408 22 37ft 0kts
26-Sep-18 15:54 45.587959 -122.595408 22 37ft 0kts
26-Sep-18 15:55 45.587959 -122.595408 22 37ft 0kts
26-Sep-18 15:56 45.587959 -122.595408 22 37ft 0kts
26-Sep-18 15:57 45.587959 -122.595408 22 37ft 0kts
26-Sep-18 15:58 45.587959 -122.595408 22 37ft 0kts
26-Sep-18 15:59 45.587959 -122.595408 22 37ft 0kts
26-Sep-18 16:00 45.587695 -122.595570 22 37ft 2kts
26-Sep-18 16:01 45.587416 -122.596236 106 37ft 2kts
26-Sep-18 16:02 45.587475 -122.596417 119 37ft 0kts
26-Sep-18 16:03 45.587400 -122.596228 119 37ft 6kts
26-Sep-18 16:04 45.585022 -122.591528 128 37ft 18kts
26-Sep-18 16:05 45.582177 -122.584948 118 37ft 20kts
26-Sep-18 16:06 45.580834 -122.584557 282 37ft 14kts
26-Sep-18 16:07 45.596634 -122.625746 299 1559ft 162kts
26-Sep-18 16:08 45.622805 -122.684169 301 3747ft 200kts
26-Sep-18 16:09 45.656794 -122.768756 300 6407ft 271kts
26-Sep-18 16:10 45.662008 -122.874964 249 10149ft 292kts
26-Sep-18 16:11 45.585470 -122.915549 163 12952ft 345kts
26-Sep-18 16:12 45.504587 -122.839639 130 14995ft 358kts
26-Sep-18 16:13 45.438462 -122.732288 131 16982ft 368kts
26-Sep-18 16:14 45.367846 -122.622558 132 19899ft 385kts
26-Sep-18 16:15 45.294379 -122.508886 132 22493ft 400kts
26-Sep-18 16:16 45.223123 -122.399087 132 24689ft 414kts
26-Sep-18 16:17 45.144311 -122.278096 133 26813ft 427kts
26-Sep-18 16:18 45.060549 -122.157953 145 28711ft 440kts
26-Sep-18 16:19 44.952222 -122.077596 156 30807ft 441kts
26-Sep-18 16:20 44.842800 -122.004042 156 32922ft 437kts
26-Sep-18 16:21 44.733861 -121.930926 157 34823ft 433kts
26-Sep-18 16:22 44.625667 -121.858587 157 36519ft 429kts
26-Sep-18 16:23 44.516778 -121.786127 156 37220ft 448kts
26-Sep-18 16:24 44.400784 -121.709275 156 37204ft 470kts
26-Sep-18 16:25 44.290406 -121.636369 156 37202ft 468kts
26-Sep-18 16:26 44.172774 -121.559012 156 37204ft 469kts
26-Sep-18 16:27 44.055498 -121.482227 156 37204ft 469kts
26-Sep-18 16:28 43.937696 -121.405438 156 37205ft 469kts
26-Sep-18 16:29 43.818043 -121.338557 172 37204ft 463kts
26-Sep-18 16:30 43.691239 -121.312543 174 37199ft 462kts
26-Sep-18 16:31 43.564533 -121.285537 174 37199ft 462kts
26-Sep-18 16:32 43.437829 -121.258671 174 37200ft 462kts
26-Sep-18 16:33 43.311031 -121.231780 174 37200ft 462kts
26-Sep-18 16:34 43.184086 -121.204855 174 37201ft 462kts
26-Sep-18 16:35 43.057431 -121.177987 174 37239ft 463kts
26-Sep-18 16:36 42.931501 -121.151272 173 37248ft 452kts
26-Sep-18 16:37 42.808833 -121.125253 173 37256ft 451kts
26-Sep-18 16:38 42.685021 -121.098974 173 37257ft 452kts
26-Sep-18 16:39 42.560895 -121.072633 173 37261ft 453kts
26-Sep-18 16:40 42.436275 -121.046184 173 37264ft 455kts
26-Sep-18 16:41 42.311701 -121.019743 173 37267ft 456kts
26-Sep-18 16:42 42.186361 -120.993137 173 37270ft 458kts
26-Sep-18 16:43 42.060639 -120.966449 173 37273ft 459kts
26-Sep-18 16:44 41.934675 -120.939707 173 37248ft 460kts
26-Sep-18 16:45 41.809087 -120.913045 173 37240ft 459kts
26-Sep-18 16:46 41.683352 -120.886352 173 37237ft 460kts
26-Sep-18 16:47 41.557587 -120.859652 172 37238ft 459kts
26-Sep-18 16:48 41.431547 -120.832894 172 37238ft 459kts
26-Sep-18 16:49 41.305566 -120.806151 172 37239ft 460kts
26-Sep-18 16:50 41.179751 -120.779447 172 37239ft 459kts
26-Sep-18 16:51 41.054109 -120.752791 172 37236ft 456kts
26-Sep-18 16:52 40.931246 -120.720519 168 37237ft 449kts
26-Sep-18 16:53 40.811004 -120.684929 168 37238ft 451kts
26-Sep-18 16:54 40.689079 -120.649170 168 37238ft 450kts
26-Sep-18 16:55 40.567286 -120.613449 168 37238ft 450kts
26-Sep-18 16:56 40.445239 -120.577646 168 37238ft 450kts
26-Sep-18 16:57 40.323390 -120.541894 168 37238ft 450kts
26-Sep-18 16:58 40.201386 -120.506089 168 37239ft 450kts
26-Sep-18 16:59 40.079498 -120.470310 168 37239ft 450kts
26-Sep-18 17:00 39.977823 -120.440459 168 37244ft 450kts
26-Sep-18 17:01 39.835882 -120.398779 168 37250ft 450kts
26-Sep-18 17:02 39.734360 -120.368961 168 37278ft 450kts
26-Sep-18 17:03 39.612628 -120.333200 168 37295ft 450kts
26-Sep-18 17:04 39.490725 -120.297385 168 37310ft 450kts
26-Sep-18 17:05 39.371408 -120.262322 168 37310ft 450kts
26-Sep-18 17:06 39.249747 -120.226566 168 37310ft 450kts
26-Sep-18 17:07 39.127985 -120.190773 168 37316ft 450kts
26-Sep-18 17:08 39.006181 -120.154967 168 37332ft 448kts
26-Sep-18 17:09 38.886534 -120.119801 166 37332ft 444kts
26-Sep-18 17:10 38.765998 -120.084349 166 37329ft 445kts
26-Sep-18 17:11 38.645495 -120.048898 166 37331ft 446kts
26-Sep-18 17:12 38.525083 -120.013469 166 37325ft 446kts
26-Sep-18 17:13 38.404415 -119.977986 166 37329ft 446kts
26-Sep-18 17:14 38.283956 -119.942526 166 37315ft 446kts
26-Sep-18 17:15 38.164634 -119.907416 166 37251ft 446kts
26-Sep-18 17:16 38.044264 -119.871993 166 37163ft 446kts
26-Sep-18 17:17 37.923738 -119.836509 166 37053ft 446kts
26-Sep-18 17:18 37.803657 -119.801175 166 36991ft 446kts
26-Sep-18 17:19 37.688477 -119.767265 166 36975ft 445kts
26-Sep-18 17:20 37.573058 -119.733289 166 37004ft 446kts
26-Sep-18 17:21 37.452647 -119.697847 166 36987ft 446kts
26-Sep-18 17:22 37.332345 -119.662433 166 36967ft 446kts
26-Sep-18 17:23 37.211736 -119.626932 166 36966ft 446kts
26-Sep-18 17:24 37.090821 -119.595843 177 36973ft 445kts
26-Sep-18 17:25 36.968840 -119.597514 182 36964ft 448kts
26-Sep-18 17:26 36.842584 -119.599930 182 36963ft 456kts
26-Sep-18 17:27 36.715939 -119.602122 182 36958ft 457kts
26-Sep-18 17:28 36.589367 -119.604300 182 36966ft 457kts
26-Sep-18 17:29 36.462815 -119.606523 182 36962ft 457kts
26-Sep-18 17:30 36.336219 -119.608723 182 36964ft 457kts
26-Sep-18 17:31 36.209184 -119.610931 182 36969ft 457kts
26-Sep-18 17:32 36.082604 -119.613025 182 36961ft 457kts
26-Sep-18 17:33 35.956232 -119.618889 190 36971ft 454kts
26-Sep-18 17:34 35.832403 -119.644936 191 36958ft 454kts
26-Sep-18 17:35 35.708088 -119.668562 184 36954ft 456kts
26-Sep-18 17:36 35.583539 -119.639783 157 36961ft 462kts
26-Sep-18 17:37 35.466809 -119.574865 156 36956ft 463kts
26-Sep-18 17:38 35.349994 -119.510452 156 36964ft 462kts
26-Sep-18 17:39 35.232792 -119.446107 157 36968ft 463kts
26-Sep-18 17:40 35.115555 -119.381965 156 36966ft 462kts
26-Sep-18 17:41 35.000526 -119.319223 157 36962ft 462kts
26-Sep-18 17:42 34.883810 -119.255736 158 36960ft 458kts
26-Sep-18 17:43 34.768886 -119.193431 158 36976ft 459kts
26-Sep-18 17:44 34.655157 -119.124417 154 36297ft 463kts
26-Sep-18 17:45 34.544912 -119.053991 154 34560ft 439kts
26-Sep-18 17:46 34.439363 -118.985623 153 31776ft 427kts
26-Sep-18 17:47 34.337655 -118.918010 151 29007ft 411kts
26-Sep-18 17:48 34.239962 -118.853281 151 26420ft 394kts
26-Sep-18 17:49 34.139749 -118.810207 161 23829ft 377kts
26-Sep-18 17:50 34.042459 -118.772185 160 21247ft 360kts
26-Sep-18 17:51 33.950372 -118.736637 160 18794ft 345kts
26-Sep-18 17:52 33.861511 -118.702368 160 16406ft 330kts
26-Sep-18 17:53 33.776271 -118.669554 159 14116ft 316kts
26-Sep-18 17:54 33.693384 -118.639079 161 12556ft 308kts
26-Sep-18 17:55 33.613432 -118.607927 140 10973ft 301kts
26-Sep-18 17:56 33.601476 -118.517440 81 9460ft 286kts
26-Sep-18 17:57 33.609379 -118.422792 81 8037ft 284kts
26-Sep-18 17:58 33.616642 -118.330129 81 6702ft 283kts
26-Sep-18 17:59 33.624218 -118.236087 86 5372ft 283kts
26-Sep-18 18:00 33.636884 -118.149612 82 5007ft 250kts
26-Sep-18 18:01 33.650194 -118.068784 63 4957ft 250kts
26-Sep-18 18:02 33.706946 -118.020965 31 4118ft 253kts
26-Sep-18 18:03 33.765647 -117.979661 31 4007ft 242kts
26-Sep-18 18:04 33.818524 -117.936443 41 3985ft 221kts
26-Sep-18 18:05 33.865129 -117.888559 41 3987ft 221kts
26-Sep-18 18:06 33.884980 -117.830892 135 3956ft 213kts
26-Sep-18 18:07 33.835928 -117.803791 171 2936ft 187kts
26-Sep-18 18:08 33.786568 -117.800103 200 2174ft 164kts
26-Sep-18 18:09 33.746426 -117.823955 208 1511ft 157kts
26-Sep-18 18:10 33.710120 -117.846998 207 704ft 134kts
26-Sep-18 18:11 33.679949 -117.866145 207 77ft 121kts
26-Sep-18 18:12 33.669100 -117.871552 122 64ft 2kts
26-Sep-18 18:13 33.669161 -117.870873 50 64ft 9kts
26-Sep-18 18:14 33.671954 -117.868228 29 64ft 12kts
26-Sep-18 18:15 33.674903 -117.865943 27 64ft 12kts
26-Sep-18 18:16 33.677696 -117.864177 27 64ft 14kts
26-Sep-18 18:17 33.678326 -117.863118 117 64ft 1kts
26-Sep-18 18:18 33.678291 -117.863034 117 64ft 0kts

Navigation Log

Ident Type
Flight plan parsing failed, navigation log unavailable